createdAt,value
2017-06-12T00:02:06.418Z,9.60
2017-06-12T00:04:33.751Z,8.83
2017-06-12T00:07:01.103Z,10.07
2017-06-12T00:09:28.431Z,9.20
2017-06-12T00:11:55.794Z,9.80
2017-06-12T00:14:23.121Z,8.70
2017-06-12T00:16:50.481Z,9.73
2017-06-12T00:19:17.809Z,10.13
2017-06-12T00:21:45.137Z,10.70
2017-06-12T00:24:12.494Z,9.60
2017-06-12T00:26:39.809Z,8.73
2017-06-12T00:29:07.141Z,9.30
2017-06-12T00:31:34.454Z,9.50
2017-06-12T00:34:01.782Z,9.87
2017-06-12T00:36:29.081Z,9.33
2017-06-12T00:38:56.441Z,10.47
2017-06-12T00:41:23.767Z,8.70
2017-06-12T00:43:51.118Z,9.40
2017-06-12T00:46:18.442Z,10.30
2017-06-12T00:48:45.806Z,11.33
2017-06-12T00:51:13.138Z,10.37
2017-06-12T00:53:40.465Z,11.87
2017-06-12T00:56:07.826Z,10.93
2017-06-12T00:58:35.139Z,10.40
2017-06-12T01:01:02.461Z,11.40
2017-06-12T01:03:29.773Z,13.10
2017-06-12T01:05:57.097Z,11.53
2017-06-12T01:08:24.415Z,12.07
2017-06-12T01:10:51.777Z,11.60
2017-06-12T01:13:19.102Z,12.20
2017-06-12T01:15:47.372Z,12.10
2017-06-12T01:18:14.702Z,13.57
2017-06-12T01:20:42.057Z,12.73
2017-06-12T01:23:09.380Z,10.80
2017-06-12T01:25:36.741Z,11.00
2017-06-12T01:28:04.061Z,11.63
2017-06-12T01:30:31.431Z,11.50
2017-06-12T01:32:58.741Z,11.53
2017-06-12T01:35:26.068Z,12.27
2017-06-12T01:37:53.397Z,11.37
2017-06-12T01:40:20.705Z,13.13
2017-06-12T01:42:48.042Z,10.90
2017-06-12T01:45:15.362Z,11.80
2017-06-12T01:47:42.705Z,10.83
2017-06-12T01:50:10.015Z,11.30
2017-06-12T01:52:37.351Z,12.40
2017-06-12T01:55:04.653Z,12.00
2017-06-12T01:57:31.985Z,11.70
2017-06-12T01:59:59.306Z,11.07
2017-06-12T02:02:26.975Z,10.83
2017-06-12T02:04:54.307Z,10.30
2017-06-12T02:07:21.649Z,10.37
2017-06-12T02:09:48.968Z,10.63
2017-06-12T02:12:16.306Z,11.10
2017-06-12T02:14:43.629Z,11.03
2017-06-12T02:17:10.942Z,11.77
2017-06-12T02:19:38.278Z,11.00
2017-06-12T02:22:05.812Z,10.73
2017-06-12T02:24:33.130Z,11.33
2017-06-12T02:27:00.463Z,11.13
2017-06-12T02:29:27.814Z,11.43
2017-06-12T02:31:55.209Z,10.47
2017-06-12T02:34:22.528Z,10.63
2017-06-12T02:36:49.829Z,11.50
2017-06-12T02:39:17.198Z,10.43
2017-06-12T02:41:44.510Z,10.50
2017-06-12T02:44:11.870Z,11.50
2017-06-12T02:46:39.183Z,10.60
2017-06-12T02:49:06.505Z,9.50
2017-06-12T02:51:33.821Z,11.13
2017-06-12T02:54:01.134Z,11.20
2017-06-12T02:56:28.479Z,10.80
2017-06-12T02:58:55.803Z,10.70
2017-06-12T03:01:23.144Z,9.87
2017-06-12T03:03:50.473Z,10.57
2017-06-12T03:06:17.834Z,10.97
2017-06-12T03:08:45.161Z,11.30
2017-06-12T03:11:12.519Z,10.60
2017-06-12T03:13:39.862Z,10.80
2017-06-12T03:16:07.201Z,11.00
2017-06-12T03:18:34.547Z,10.63
2017-06-12T03:21:01.898Z,11.00
2017-06-12T03:23:29.217Z,10.97
2017-06-12T03:25:56.544Z,10.97
2017-06-12T03:28:23.897Z,10.80
2017-06-12T03:30:51.525Z,10.83
2017-06-12T03:33:18.865Z,10.60
2017-06-12T03:35:46.174Z,11.40
2017-06-12T03:38:13.497Z,10.83
2017-06-12T03:40:40.829Z,10.50
2017-06-12T03:43:08.168Z,11.23
2017-06-12T03:45:35.481Z,11.17
2017-06-12T03:48:02.853Z,11.47
2017-06-12T03:50:30.195Z,11.00
2017-06-12T03:52:57.538Z,11.37
2017-06-12T03:55:25.165Z,11.10
2017-06-12T03:57:52.523Z,11.03
2017-06-12T04:00:19.862Z,10.50
2017-06-12T04:02:47.197Z,10.10
2017-06-12T04:05:14.557Z,11.00
2017-06-12T04:07:43.801Z,9.93
2017-06-12T04:10:11.162Z,10.90
2017-06-12T04:12:38.498Z,11.10
2017-06-12T04:15:05.840Z,10.90
2017-06-12T04:17:33.171Z,11.80
2017-06-12T04:20:00.521Z,11.20
2017-06-12T04:22:27.854Z,11.27
2017-06-12T04:24:55.215Z,11.33
2017-06-12T04:27:22.538Z,11.60
2017-06-12T04:29:49.890Z,11.47
2017-06-12T04:32:17.204Z,11.50
2017-06-12T04:34:44.512Z,10.90
2017-06-12T04:37:11.839Z,10.83
2017-06-12T04:39:39.157Z,12.03
2017-06-12T04:42:06.494Z,11.60
2017-06-12T04:44:33.825Z,11.77
2017-06-12T04:47:01.198Z,12.10
2017-06-12T04:49:28.693Z,12.40
2017-06-12T04:51:56.025Z,12.07
2017-06-12T04:54:23.488Z,12.20
2017-06-12T04:56:50.902Z,11.80
2017-06-12T04:59:18.227Z,12.20
2017-06-12T05:01:45.590Z,13.00
2017-06-12T05:04:12.939Z,12.40
2017-06-12T05:06:40.266Z,13.60
2017-06-12T05:09:07.569Z,12.33
2017-06-12T05:11:35.802Z,12.77
2017-06-12T05:14:03.135Z,12.80
2017-06-12T05:16:30.484Z,11.80
2017-06-12T05:18:57.832Z,11.87
2017-06-12T05:21:25.163Z,12.63
2017-06-12T05:23:52.538Z,12.37
2017-06-12T05:26:19.845Z,12.83
2017-06-12T05:28:47.173Z,12.40
2017-06-12T05:31:14.494Z,11.97
2017-06-12T05:33:41.823Z,11.90
2017-06-12T05:36:09.160Z,12.70
2017-06-12T05:38:36.512Z,12.20
2017-06-12T05:41:03.813Z,12.43
2017-06-12T05:43:31.147Z,12.07
2017-06-12T05:45:58.472Z,12.80
2017-06-12T05:48:25.772Z,12.00
2017-06-12T05:50:53.096Z,13.13
2017-06-12T05:53:20.405Z,12.80
2017-06-12T05:55:47.733Z,12.17
2017-06-12T05:58:15.038Z,12.43
2017-06-12T06:00:42.370Z,13.33
2017-06-12T06:03:09.766Z,12.00
2017-06-12T06:05:37.104Z,13.10
2017-06-12T06:08:04.437Z,11.43
2017-06-12T06:10:31.810Z,11.47
2017-06-12T06:12:59.125Z,11.00
2017-06-12T06:15:26.450Z,12.87
2017-06-12T06:17:53.768Z,12.27
2017-06-12T06:20:21.118Z,11.50
2017-06-12T06:22:48.443Z,11.00
2017-06-12T06:25:15.757Z,11.37
2017-06-12T06:27:43.106Z,12.20
2017-06-12T06:30:10.418Z,12.37
2017-06-12T06:32:37.762Z,12.67
2017-06-12T06:35:05.092Z,13.80
2017-06-12T06:37:32.436Z,12.60
2017-06-12T06:39:59.783Z,12.00
2017-06-12T06:42:27.429Z,12.70
2017-06-12T06:44:54.772Z,12.50
2017-06-12T06:47:22.124Z,11.67
2017-06-12T06:49:49.465Z,11.53
2017-06-12T06:52:16.804Z,8.50
2017-06-12T06:54:44.135Z,8.27
2017-06-12T06:57:11.490Z,7.10
2017-06-12T06:59:38.808Z,6.30
2017-06-12T07:02:06.131Z,6.10
2017-06-12T07:04:33.452Z,6.70
2017-06-12T07:07:00.749Z,6.47
2017-06-12T07:09:28.080Z,6.40
2017-06-12T07:11:55.718Z,7.03
2017-06-12T07:14:23.069Z,7.37
2017-06-12T07:16:50.405Z,7.67
2017-06-12T07:19:17.720Z,7.20
2017-06-12T07:21:45.022Z,7.20
2017-06-12T07:24:12.339Z,7.33
2017-06-12T07:26:39.663Z,6.00
2017-06-12T07:29:06.974Z,5.67
2017-06-12T07:31:34.268Z,5.47
2017-06-12T07:34:01.589Z,5.43
2017-06-12T07:36:28.950Z,4.80
2017-06-12T07:38:56.289Z,5.30
2017-06-12T07:41:23.912Z,5.00
2017-06-12T07:43:51.232Z,4.37
2017-06-12T07:46:18.549Z,4.43
2017-06-12T07:48:45.844Z,4.30
2017-06-12T07:51:15.645Z,4.40
2017-06-12T07:53:42.949Z,5.27
2017-06-12T07:56:10.261Z,4.50
2017-06-12T07:58:41.847Z,4.77
2017-06-12T08:01:09.879Z,5.10
2017-06-12T08:03:37.560Z,4.70
2017-06-12T08:06:05.232Z,4.60
2017-06-12T08:08:32.685Z,4.93
2017-06-12T08:11:00.014Z,4.60
2017-06-12T08:13:27.318Z,4.60
2017-06-12T08:15:54.619Z,4.43
2017-06-12T08:18:21.950Z,4.87
2017-06-12T08:20:49.259Z,4.70
2017-06-12T08:23:16.578Z,5.40
2017-06-12T08:25:43.878Z,4.77
2017-06-12T08:28:11.194Z,5.00
2017-06-12T08:30:38.517Z,5.10
2017-06-12T08:33:05.835Z,5.40
2017-06-12T08:35:33.140Z,4.80
2017-06-12T08:38:00.453Z,5.60
2017-06-12T08:40:27.773Z,5.20
2017-06-12T08:42:55.089Z,5.00
2017-06-12T08:45:22.465Z,4.57
2017-06-12T08:47:49.774Z,4.00
2017-06-12T08:50:17.078Z,3.97
2017-06-12T08:52:44.385Z,4.00
2017-06-12T08:55:11.710Z,4.53
2017-06-12T08:57:39.001Z,4.23
2017-06-12T09:00:06.309Z,3.90
2017-06-12T09:02:33.618Z,4.00
2017-06-12T09:05:00.934Z,3.67
2017-06-12T09:07:28.233Z,3.33
2017-06-12T09:09:55.549Z,3.70
2017-06-12T09:12:22.857Z,3.60
2017-06-12T09:14:50.171Z,3.80
2017-06-12T09:17:17.490Z,3.50
2017-06-12T09:19:44.800Z,3.30
2017-06-12T09:22:12.094Z,3.50
2017-06-12T09:24:39.418Z,2.90
2017-06-12T09:27:06.765Z,3.40
2017-06-12T09:29:34.090Z,3.30
2017-06-12T09:32:01.402Z,3.00
2017-06-12T09:34:28.710Z,3.10
2017-06-12T09:36:56.042Z,3.37
2017-06-12T09:39:23.349Z,2.60
2017-06-12T09:41:50.671Z,3.10
2017-06-12T09:44:17.970Z,3.40
2017-06-12T09:46:45.294Z,3.00
2017-06-12T09:49:12.617Z,2.80
2017-06-12T09:51:39.932Z,3.40
2017-06-12T09:54:07.230Z,3.07
2017-06-12T09:56:34.566Z,3.27
2017-06-12T09:59:01.876Z,3.20
2017-06-12T10:01:29.208Z,3.00
2017-06-12T10:03:56.532Z,2.67
2017-06-12T10:06:23.833Z,3.40
2017-06-12T10:08:51.180Z,2.60
2017-06-12T10:11:18.473Z,3.17
2017-06-12T10:13:45.797Z,3.10
2017-06-12T10:16:13.089Z,3.07
2017-06-12T10:18:40.413Z,2.73
2017-06-12T10:21:07.704Z,3.10
2017-06-12T10:23:35.028Z,3.67
2017-06-12T10:26:02.421Z,3.00
2017-06-12T10:28:29.742Z,2.23
2017-06-12T10:30:57.066Z,2.47
2017-06-12T10:33:24.370Z,3.17
2017-06-12T10:35:51.676Z,3.67
2017-06-12T10:38:18.981Z,3.03
2017-06-12T10:40:47.125Z,3.50
2017-06-12T10:43:14.425Z,2.57
2017-06-12T10:45:41.768Z,3.20
2017-06-12T10:48:09.062Z,3.03
2017-06-12T10:50:36.378Z,2.60
2017-06-12T10:53:03.698Z,2.83
2017-06-12T10:55:31.014Z,3.00
2017-06-12T10:57:58.318Z,3.30
2017-06-12T11:00:25.628Z,2.80
2017-06-12T11:02:52.931Z,2.97
2017-06-12T11:05:20.313Z,2.93
2017-06-12T11:07:47.637Z,2.57
2017-06-12T11:10:15.003Z,3.20
2017-06-12T11:12:42.317Z,2.70
2017-06-12T11:15:09.617Z,2.93
2017-06-12T11:17:36.947Z,3.23
2017-06-12T11:20:04.247Z,2.70
2017-06-12T11:22:37.346Z,3.00
2017-06-12T11:25:04.653Z,2.73
2017-06-12T11:27:31.988Z,3.00
2017-06-12T11:29:59.286Z,2.67
2017-06-12T11:32:26.617Z,3.10
2017-06-12T11:34:53.926Z,2.90
2017-06-12T11:37:21.242Z,3.10
2017-06-12T11:39:48.702Z,2.77
2017-06-12T11:42:16.037Z,2.80
2017-06-12T11:44:43.336Z,3.30
2017-06-12T11:47:10.653Z,3.00
2017-06-12T11:49:37.986Z,3.30
2017-06-12T11:52:05.342Z,3.00
2017-06-12T11:54:32.644Z,2.90
2017-06-12T11:56:59.954Z,2.90
2017-06-12T11:59:27.254Z,2.97
2017-06-12T12:01:54.545Z,3.20
2017-06-12T12:04:21.856Z,3.20
2017-06-12T12:06:49.452Z,3.00
2017-06-12T12:09:16.767Z,3.20
2017-06-12T12:11:44.065Z,2.60
2017-06-12T12:14:11.388Z,3.00
2017-06-12T12:16:38.725Z,2.80
2017-06-12T12:19:07.005Z,2.70
2017-06-12T12:21:34.338Z,2.80
2017-06-12T12:24:02.010Z,2.57
2017-06-12T12:26:29.322Z,2.60
2017-06-12T12:28:56.714Z,2.50
2017-06-12T12:31:24.006Z,2.87
2017-06-12T12:33:51.326Z,3.03
2017-06-12T12:36:18.625Z,2.53
2017-06-12T12:38:45.950Z,3.03
2017-06-12T12:41:13.259Z,2.77
2017-06-12T12:43:40.549Z,2.93
2017-06-12T12:46:07.870Z,2.77
2017-06-12T12:48:35.202Z,2.80
2017-06-12T12:51:02.646Z,2.70
2017-06-12T12:53:29.973Z,2.40
2017-06-12T12:55:57.290Z,2.50
2017-06-12T12:58:24.606Z,2.47
2017-06-12T13:00:51.927Z,2.53
2017-06-12T13:03:19.254Z,2.73
2017-06-12T13:05:46.609Z,3.03
2017-06-12T13:08:13.918Z,2.60
2017-06-12T13:10:41.230Z,3.07
2017-06-12T13:13:08.534Z,2.70
2017-06-12T13:15:35.847Z,3.57
2017-06-12T13:18:03.186Z,3.40
2017-06-12T13:20:30.518Z,3.60
2017-06-12T13:22:58.094Z,3.60
2017-06-12T13:25:25.425Z,3.40
2017-06-12T13:27:52.742Z,3.07
2017-06-12T13:30:20.054Z,2.93
2017-06-12T13:32:47.374Z,2.63
2017-06-12T13:35:14.677Z,2.73
2017-06-12T13:37:42.032Z,3.10
2017-06-12T13:40:09.350Z,3.23
2017-06-12T13:42:36.665Z,3.13
2017-06-12T13:45:03.967Z,2.60
2017-06-12T13:47:31.276Z,3.13
2017-06-12T13:49:58.590Z,3.03
2017-06-12T13:52:25.898Z,3.20
2017-06-12T13:54:53.216Z,2.60
2017-06-12T13:57:20.540Z,2.80
2017-06-12T13:59:47.898Z,3.20
2017-06-12T14:02:15.222Z,3.10
2017-06-12T14:04:42.585Z,2.90
2017-06-12T14:07:09.909Z,2.93
2017-06-12T14:09:37.280Z,2.90
2017-06-12T14:12:04.585Z,3.10
2017-06-12T14:14:31.932Z,2.87
2017-06-12T14:16:59.273Z,3.00
2017-06-12T14:19:26.621Z,3.53
2017-06-12T14:21:53.932Z,2.90
2017-06-12T14:24:21.279Z,3.40
2017-06-12T14:26:48.564Z,2.67
2017-06-12T14:29:15.874Z,2.87
2017-06-12T14:31:43.225Z,2.90
2017-06-12T14:34:10.570Z,3.33
2017-06-12T14:36:37.906Z,3.13
2017-06-12T14:39:05.238Z,3.00
2017-06-12T14:41:32.794Z,3.20
2017-06-12T14:44:00.109Z,3.20
2017-06-12T14:46:27.446Z,3.50
2017-06-12T14:48:54.759Z,3.00
2017-06-12T14:51:22.110Z,3.30
2017-06-12T14:53:49.409Z,3.47
2017-06-12T14:56:16.718Z,3.23
2017-06-12T14:58:44.045Z,3.30
2017-06-12T15:01:11.345Z,3.60
2017-06-12T15:03:38.671Z,3.40
2017-06-12T15:06:05.999Z,3.13
2017-06-12T15:08:33.340Z,2.93
2017-06-12T15:11:00.660Z,2.70
2017-06-12T15:13:28.247Z,2.87
2017-06-12T15:15:55.536Z,2.73
2017-06-12T15:18:22.841Z,2.90
2017-06-12T15:20:50.137Z,2.80
2017-06-12T15:23:17.428Z,3.43
2017-06-12T15:25:44.744Z,2.80
2017-06-12T15:28:12.057Z,2.73
2017-06-12T15:30:39.912Z,2.53
2017-06-12T15:33:07.227Z,2.60
2017-06-12T15:35:34.740Z,2.40
2017-06-12T15:38:02.030Z,2.40
2017-06-12T15:40:29.358Z,3.03
2017-06-12T15:42:56.644Z,2.77
2017-06-12T15:45:23.991Z,2.53
2017-06-12T15:47:51.298Z,2.90
2017-06-12T15:50:18.601Z,2.90
2017-06-12T15:52:45.893Z,2.70
2017-06-12T15:55:13.245Z,2.90
2017-06-12T15:57:40.605Z,3.10
2017-06-12T16:00:07.914Z,2.90
2017-06-12T16:02:35.276Z,3.17
2017-06-12T16:05:02.907Z,2.90
2017-06-12T16:07:30.278Z,2.63
2017-06-12T16:09:57.566Z,2.80
2017-06-12T16:12:24.888Z,2.40
2017-06-12T16:14:52.198Z,2.60
2017-06-12T16:17:19.496Z,2.90
2017-06-12T16:19:46.804Z,2.80
2017-06-12T16:22:14.168Z,3.07
2017-06-12T16:24:41.469Z,2.47
2017-06-12T16:27:08.768Z,3.03
2017-06-12T16:29:36.127Z,3.13
2017-06-12T16:32:03.442Z,2.90
2017-06-12T16:34:30.742Z,2.97
2017-06-12T16:36:58.345Z,2.97
2017-06-12T16:39:25.672Z,2.93
2017-06-12T16:41:52.988Z,3.60
2017-06-12T16:44:20.291Z,3.03
2017-06-12T16:46:48.842Z,3.00
2017-06-12T16:49:16.165Z,3.50
2017-06-12T16:51:43.466Z,3.37
2017-06-12T16:54:10.789Z,3.07
2017-06-12T16:56:38.081Z,3.37
2017-06-12T16:59:05.404Z,3.20
2017-06-12T17:01:32.977Z,4.30
2017-06-12T17:04:00.285Z,3.10
2017-06-12T17:06:27.585Z,3.67
2017-06-12T17:08:54.951Z,3.10
2017-06-12T17:11:22.245Z,3.37
2017-06-12T17:13:49.565Z,3.10
2017-06-12T17:16:16.906Z,3.70
2017-06-12T17:18:44.217Z,3.43
2017-06-12T17:21:11.525Z,3.77
2017-06-12T17:23:38.878Z,3.73
2017-06-12T17:26:06.181Z,3.40
2017-06-12T17:28:33.535Z,3.33
2017-06-12T17:31:00.967Z,3.23
2017-06-12T17:33:28.335Z,3.73
2017-06-12T17:35:55.641Z,4.07
2017-06-12T17:38:22.965Z,3.17
2017-06-12T17:40:50.280Z,3.20
2017-06-12T17:43:18.064Z,3.43
2017-06-12T17:45:45.377Z,3.00
2017-06-12T17:48:12.799Z,3.30
2017-06-12T17:50:40.093Z,3.17
2017-06-12T17:53:07.482Z,3.47
2017-06-12T17:55:34.776Z,3.80
2017-06-12T17:58:02.098Z,3.50
2017-06-12T18:00:29.409Z,4.03
2017-06-12T18:02:56.745Z,3.90
2017-06-12T18:05:24.050Z,3.60
2017-06-12T18:07:51.350Z,3.90
2017-06-12T18:10:18.665Z,3.53
2017-06-12T18:12:45.969Z,4.00
2017-06-12T18:15:13.333Z,3.63
2017-06-12T18:17:40.666Z,3.63
2017-06-12T18:20:08.009Z,3.80
2017-06-12T18:22:35.513Z,3.43
2017-06-12T18:25:03.265Z,3.53
2017-06-12T18:27:30.973Z,3.97
2017-06-12T18:29:58.837Z,3.80
2017-06-12T18:32:26.133Z,3.77
2017-06-12T18:34:53.456Z,3.93
2017-06-12T18:37:20.862Z,4.10
2017-06-12T18:39:48.227Z,3.90
2017-06-12T18:42:15.535Z,3.80
2017-06-12T18:44:42.836Z,4.10
2017-06-12T18:47:10.146Z,3.93
2017-06-12T18:49:37.526Z,3.93
2017-06-12T18:52:04.832Z,4.03
2017-06-12T18:54:32.122Z,4.10
2017-06-12T18:56:59.468Z,4.20
2017-06-12T18:59:26.782Z,3.83
2017-06-12T19:01:54.088Z,4.27
2017-06-12T19:04:21.393Z,3.87
2017-06-12T19:06:48.726Z,4.27
2017-06-12T19:09:16.063Z,4.10
2017-06-12T19:11:43.413Z,4.00
2017-06-12T19:14:10.721Z,4.00
2017-06-12T19:16:38.018Z,4.13
2017-06-12T19:19:05.336Z,3.70
2017-06-12T19:21:32.649Z,4.00
2017-06-12T19:23:59.974Z,4.17
2017-06-12T19:26:27.286Z,4.50
2017-06-12T19:28:54.596Z,4.20
2017-06-12T19:31:21.918Z,4.50
2017-06-12T19:33:49.278Z,4.57
2017-06-12T19:36:16.585Z,4.37
2017-06-12T19:38:43.937Z,4.37
2017-06-12T19:41:11.274Z,4.33
2017-06-12T19:43:38.660Z,4.63
2017-06-12T19:46:05.970Z,4.50
2017-06-12T19:48:33.302Z,4.87
2017-06-12T19:51:00.691Z,4.20
2017-06-12T19:53:27.982Z,3.87
2017-06-12T19:55:55.307Z,4.20
2017-06-12T19:58:22.606Z,4.10
2017-06-12T20:00:49.934Z,4.80
2017-06-12T20:03:17.261Z,4.20
2017-06-12T20:05:44.594Z,4.13
2017-06-12T20:08:11.926Z,3.63
2017-06-12T20:10:39.253Z,3.97
2017-06-12T20:13:06.545Z,3.77
2017-06-12T20:15:33.883Z,4.30
2017-06-12T20:18:01.186Z,4.60
2017-06-12T20:20:28.534Z,3.43
2017-06-12T20:22:55.876Z,4.47
2017-06-12T20:25:23.180Z,4.33
2017-06-12T20:27:50.486Z,4.30
2017-06-12T20:30:18.044Z,4.47
2017-06-12T20:32:45.341Z,4.00
2017-06-12T20:35:12.681Z,3.60
2017-06-12T20:37:40.031Z,3.83
2017-06-12T20:40:07.339Z,3.60
2017-06-12T20:42:34.648Z,3.87
2017-06-12T20:45:01.967Z,3.90
2017-06-12T20:47:29.303Z,3.70
2017-06-12T20:49:56.629Z,3.90
2017-06-12T20:52:23.948Z,4.27
2017-06-12T20:54:51.250Z,4.40
2017-06-12T20:57:18.625Z,3.87
2017-06-12T20:59:45.929Z,4.40
2017-06-12T21:02:13.237Z,4.10
2017-06-12T21:04:40.917Z,3.93
2017-06-12T21:07:08.227Z,3.63
2017-06-12T21:09:35.581Z,3.97
2017-06-12T21:12:02.893Z,3.80
2017-06-12T21:14:30.213Z,4.30
2017-06-12T21:16:57.514Z,3.67
2017-06-12T21:19:24.834Z,3.80
2017-06-12T21:21:52.176Z,3.60
2017-06-12T21:24:19.502Z,4.37
2017-06-12T21:26:46.812Z,4.20
2017-06-12T21:29:14.115Z,3.90
2017-06-12T21:31:41.478Z,3.47
2017-06-12T21:34:08.783Z,4.63
2017-06-12T21:36:36.134Z,3.50
2017-06-12T21:39:03.540Z,3.70
2017-06-12T21:41:30.874Z,4.03
2017-06-12T21:43:58.541Z,3.93
2017-06-12T21:46:25.859Z,3.80
2017-06-12T21:48:53.165Z,3.77
2017-06-12T21:51:20.523Z,3.70
2017-06-12T21:53:47.838Z,3.90
2017-06-12T21:56:15.142Z,4.00
2017-06-12T21:58:42.460Z,3.93
2017-06-12T22:01:09.759Z,4.03
2017-06-12T22:03:37.119Z,3.70
2017-06-12T22:06:04.420Z,3.83
2017-06-12T22:08:32.684Z,3.63
2017-06-12T22:11:00.053Z,4.20
2017-06-12T22:13:27.368Z,3.50
2017-06-12T22:15:54.722Z,3.73
2017-06-12T22:18:22.046Z,3.50
2017-06-12T22:20:49.380Z,3.63
2017-06-12T22:23:16.719Z,3.97
2017-06-12T22:25:44.081Z,4.07
2017-06-12T22:28:11.387Z,4.03
2017-06-12T22:30:38.726Z,3.63
2017-06-12T22:33:06.025Z,4.07
2017-06-12T22:35:33.455Z,3.60
2017-06-12T22:38:00.773Z,3.43
2017-06-12T22:40:28.109Z,4.20
2017-06-12T22:42:55.473Z,4.07
2017-06-12T22:45:22.786Z,3.87
2017-06-12T22:47:50.109Z,3.70
2017-06-12T22:50:17.415Z,3.50
2017-06-12T22:52:44.749Z,4.23
2017-06-12T22:55:12.061Z,3.90
2017-06-12T22:57:39.394Z,4.03
2017-06-12T23:00:06.746Z,3.47
2017-06-12T23:02:34.075Z,4.40
2017-06-12T23:05:01.392Z,3.90
2017-06-12T23:07:28.749Z,4.17
2017-06-12T23:09:56.077Z,3.70
2017-06-12T23:12:23.384Z,3.60
2017-06-12T23:14:50.693Z,4.00
2017-06-12T23:17:18.037Z,3.73
2017-06-12T23:19:45.362Z,3.47
2017-06-12T23:22:12.675Z,3.77
2017-06-12T23:24:54.849Z,3.90
2017-06-12T23:27:39.898Z,3.60
2017-06-12T23:30:07.198Z,3.77
2017-06-12T23:32:34.537Z,3.20
2017-06-12T23:35:01.856Z,3.57
2017-06-12T23:37:29.174Z,4.00
2017-06-12T23:39:56.465Z,3.90
2017-06-12T23:42:23.803Z,3.50
2017-06-12T23:44:51.132Z,3.50
2017-06-12T23:47:18.433Z,4.27
2017-06-12T23:49:45.748Z,3.67
2017-06-12T23:52:13.044Z,4.17
2017-06-12T23:54:40.357Z,4.17
2017-06-12T23:57:07.653Z,3.30
2017-06-12T23:59:34.981Z,3.73
